sim
Sign-in with your pilot id or email,
or register
Callsign
Passwort

Schedule Details

Flight Number: DLH1823 (1)
Departure: Seville San Pablo Airport (LEZL) at 11:25
Arrival: Munich Airport (EDDM) at 14:15
Route: Lufthansa Passenger Schedule. Enter filed route here before submitting Pirep.

Weather Information
Getting current METAR information for LEZL 221530Z 22006KT 190V260 CAVOK 28/13 Q1014 NOSIG
Getting current METAR information for EDDM 221550Z VRB02KT 9999 FEW040CB 23/14 Q1010 NOSIG

Schedule Frequency

Route Map